Cheongju International Airport
RKTU : now visible

Airfield :











YOU CAN JOIN US ON...

 
LOGIN :

Register | Disclaimer

   EN    FR    IT 

 









Legend :    VFR   Marginal VFR   IFR   Intensive IFR   Very Intensive IFR
Visi :
Ceiling :
>= 8 km
>= 3000ft
5 to 8 km
1000 to 3000 ft
1500m to 5 km
500 to 1000 ft
800 to 1500m
200 to 500 ft
< 800m
< 200 ft
Symbols :   Thunderstorms  Fog  Heavy snow  Heavy precipitations  Wind > 20 kt






- Airport Elevation : 191 ft
- IATA code : CJJ


RKTU - Cheongju International

CURRENT METAR :
  • 240500Z 24005KT CAVOK 11/01 Q1024

EXPIRED METARs :
  • 240400Z 27005KT CAVOK 11/M01 Q1025
  • 240300Z 25003KT CAVOK 09/M02 Q1026

TAF TAF RKTU
Valid from the 24 at 00:00 until the 25 at 06:00 UTC


232300Z 2400/2506 30006KT 9999 SCT030 SCT200 TX11/2406Z TN05/2421Z
BECMG 2411/2412 24006KT SCT030 BKN100
BECMG 2412/2413 4800 -RA BR BKN030 BKN100
BECMG 2417/2418 15006KT 3200 BKN015 OVC030



MET'MAP, your aeronautical weather chart ! - Copyright ORBIFLY December 2007 - Disclaimer

ORBIFLY MET'MAP TEAM :

Programming & Development : Alexandra Zaïnal
Concept & original design : Baudouin d'Aumeries
Assistance for programming : Marc-Olivier Méhu
Technical & hardware support : Manuel Goepfert

Contact : metmap@orbifly.com




SOURCES & CREDITS :

   NOAA       Earth
Advisory